sensor_id;sensor_type;location;lat;lon;timestamp;pressure;altitude;pressure_sealevel;temperature;humidity
40502;BME280;29631;49.168;9.848;2022-11-27T00:01:29;97850.91;;;9.02;81.71
40502;BME280;29631;49.168;9.848;2022-11-27T00:03:55;97829.06;;;8.93;82.05
40502;BME280;29631;49.168;9.848;2022-11-27T00:06:25;97845.31;;;8.97;82.21
40502;BME280;29631;49.168;9.848;2022-11-27T00:08:51;97836.63;;;8.96;82.28
40502;BME280;29631;49.168;9.848;2022-11-27T00:11:21;97838.75;;;8.93;82.45
40502;BME280;29631;49.168;9.848;2022-11-27T00:13:48;97858.66;;;9.03;81.82
40502;BME280;29631;49.168;9.848;2022-11-27T00:16:15;97843.34;;;8.99;81.88
40502;BME280;29631;49.168;9.848;2022-11-27T00:18:41;97831.53;;;8.87;82.48
40502;BME280;29631;49.168;9.848;2022-11-27T00:21:18;97846.47;;;9.02;83.10
40502;BME280;29631;49.168;9.848;2022-11-27T00:23:47;97832.19;;;8.97;81.76
40502;BME280;29631;49.168;9.848;2022-11-27T00:26:13;97811.97;;;8.81;82.28
40502;BME280;29631;49.168;9.848;2022-11-27T00:28:39;97809.66;;;8.86;82.36
40502;BME280;29631;49.168;9.848;2022-11-27T00:31:15;97811.31;;;8.87;83.18
40502;BME280;29631;49.168;9.848;2022-11-27T00:33:41;97807.22;;;8.85;82.67
40502;BME280;29631;49.168;9.848;2022-11-27T00:36:08;97793.25;;;8.76;82.19
40502;BME280;29631;49.168;9.848;2022-11-27T00:38:35;97726.41;;;8.31;83.33
40502;BME280;29631;49.168;9.848;2022-11-27T00:41:13;97818.88;;;8.90;83.43
40502;BME280;29631;49.168;9.848;2022-11-27T00:43:39;97824.16;;;8.90;83.29
40502;BME280;29631;49.168;9.848;2022-11-27T00:46:05;97803.44;;;8.79;83.11
40502;BME280;29631;49.168;9.848;2022-11-27T00:48:31;97831.69;;;8.93;83.38
40502;BME280;29631;49.168;9.848;2022-11-27T00:51:02;97790.81;;;8.75;82.53
40502;BME280;29631;49.168;9.848;2022-11-27T00:53:29;97819.53;;;8.92;82.72
40502;BME280;29631;49.168;9.848;2022-11-27T00:55:56;97810.81;;;8.92;83.41
40502;BME280;29631;49.168;9.848;2022-11-27T00:58:24;97802.59;;;8.95;82.92
40502;BME280;29631;49.168;9.848;2022-11-27T01:00:59;97787.81;;;8.86;82.69
40502;BME280;29631;49.168;9.848;2022-11-27T01:03:26;97813.28;;;9.01;82.81
40502;BME280;29631;49.168;9.848;2022-11-27T01:05:52;97782.72;;;8.92;82.46
40502;BME280;29631;49.168;9.848;2022-11-27T01:08:18;97794.56;;;8.96;81.90
40502;BME280;29631;49.168;9.848;2022-11-27T01:10:52;97783.38;;;8.86;82.97
40502;BME280;29631;49.168;9.848;2022-11-27T01:13:25;97760.38;;;8.72;81.84
40502;BME280;29631;49.168;9.848;2022-11-27T01:16:10;97777.81;;;8.81;81.93
40502;BME280;29631;49.168;9.848;2022-11-27T01:18:38;97775.84;;;8.75;81.97
40502;BME280;29631;49.168;9.848;2022-11-27T01:21:04;97789.78;;;8.84;82.95
40502;BME280;29631;49.168;9.848;2022-11-27T01:23:31;97751.38;;;8.59;82.00
40502;BME280;29631;49.168;9.848;2022-11-27T01:26:01;97798.34;;;8.86;82.67
40502;BME280;29631;49.168;9.848;2022-11-27T01:28:27;97749.25;;;8.63;82.35
40502;BME280;29631;49.168;9.848;2022-11-27T01:30:52;97779.75;;;8.79;81.97
40502;BME280;29631;49.168;9.848;2022-11-27T01:33:19;97739.41;;;8.57;82.63
40502;BME280;29631;49.168;9.848;2022-11-27T01:36:02;97763.38;;;8.69;82.09
40502;BME280;29631;49.168;9.848;2022-11-27T01:38:29;97764.66;;;8.73;82.64
40502;BME280;29631;49.168;9.848;2022-11-27T01:46:41;97760.38;;;8.72;82.15
40502;BME280;29631;49.168;9.848;2022-11-27T01:49:26;97746.63;;;8.70;82.09
40502;BME280;29631;49.168;9.848;2022-11-27T01:58:24;97744.13;;;8.77;82.41
40502;BME280;29631;49.168;9.848;2022-11-27T02:00:51;97722.66;;;8.66;81.90
40502;BME280;29631;49.168;9.848;2022-11-27T02:03:17;97727.53;;;8.68;82.13
40502;BME280;29631;49.168;9.848;2022-11-27T02:05:43;97699.97;;;8.57;82.10
40502;BME280;29631;49.168;9.848;2022-11-27T02:08:11;97734.28;;;8.79;82.11
40502;BME280;29631;49.168;9.848;2022-11-27T02:13:36;97730.16;;;8.84;82.60
40502;BME280;29631;49.168;9.848;2022-11-27T02:16:51;97723.09;;;8.85;82.16
40502;BME280;29631;49.168;9.848;2022-11-27T02:19:49;97707.97;;;8.79;82.95
40502;BME280;29631;49.168;9.848;2022-11-27T02:25:33;97695.69;;;8.71;82.34
40502;BME280;29631;49.168;9.848;2022-11-27T02:31:46;97701.06;;;8.78;82.05
40502;BME280;29631;49.168;9.848;2022-11-27T02:37:34;97696.31;;;8.81;81.96
40502;BME280;29631;49.168;9.848;2022-11-27T02:40:11;97707.97;;;8.87;82.79
40502;BME280;29631;49.168;9.848;2022-11-27T02:42:49;97714.22;;;8.86;82.48
40502;BME280;29631;49.168;9.848;2022-11-27T02:45:29;97718.63;;;8.85;82.77
40502;BME280;29631;49.168;9.848;2022-11-27T02:47:56;97672.03;;;8.64;82.17
40502;BME280;29631;49.168;9.848;2022-11-27T02:50:25;97686.78;;;8.72;82.38
40502;BME280;29631;49.168;9.848;2022-11-27T02:52:56;97680.72;;;8.72;82.40
40502;BME280;29631;49.168;9.848;2022-11-27T02:55:26;97700.88;;;8.87;82.50
40502;BME280;29631;49.168;9.848;2022-11-27T02:57:56;97692.34;;;8.85;82.16
40502;BME280;29631;49.168;9.848;2022-11-27T03:00:23;97706.16;;;8.87;82.20
40502;BME280;29631;49.168;9.848;2022-11-27T03:02:54;97688.25;;;8.83;82.36
40502;BME280;29631;49.168;9.848;2022-11-27T03:05:23;97702.03;;;8.93;82.68
40502;BME280;29631;49.168;9.848;2022-11-27T03:11:10;97674.13;;;8.84;82.07
40502;BME280;29631;49.168;9.848;2022-11-27T03:13:41;97682.50;;;8.87;82.08
40502;BME280;29631;49.168;9.848;2022-11-27T03:16:21;97663.94;;;8.81;81.89
40502;BME280;29631;49.168;9.848;2022-11-27T03:19:15;97665.75;;;8.80;82.00
40502;BME280;29631;49.168;9.848;2022-11-27T03:24:18;97666.09;;;8.77;82.06
40502;BME280;29631;49.168;9.848;2022-11-27T03:26:44;97679.56;;;8.82;81.97
40502;BME280;29631;49.168;9.848;2022-11-27T03:29:38;97671.97;;;8.79;82.72
40502;BME280;29631;49.168;9.848;2022-11-27T03:32:05;97668.38;;;8.80;83.23
40502;BME280;29631;49.168;9.848;2022-11-27T03:34:32;97678.88;;;8.80;82.75
40502;BME280;29631;49.168;9.848;2022-11-27T03:36:58;97669.06;;;8.74;82.98
40502;BME280;29631;49.168;9.848;2022-11-27T03:39:25;97687.09;;;8.85;82.57
40502;BME280;29631;49.168;9.848;2022-11-27T03:50:58;97693.00;;;8.95;82.92
40502;BME280;29631;49.168;9.848;2022-11-27T03:54:15;97683.28;;;8.96;82.92
40502;BME280;29631;49.168;9.848;2022-11-27T03:56:58;97670.66;;;8.91;82.96
40502;BME280;29631;49.168;9.848;2022-11-27T03:59:33;97670.00;;;8.89;82.47
40502;BME280;29631;49.168;9.848;2022-11-27T04:02:01;97673.13;;;8.93;82.63
40502;BME280;29631;49.168;9.848;2022-11-27T04:04:27;97663.75;;;8.90;83.10
40502;BME280;29631;49.168;9.848;2022-11-27T04:06:53;97677.22;;;8.95;83.10
40502;BME280;29631;49.168;9.848;2022-11-27T04:09:19;97679.84;;;8.95;82.35
40502;BME280;29631;49.168;9.848;2022-11-27T04:11:44;97680.16;;;8.92;82.38
40502;BME280;29631;49.168;9.848;2022-11-27T04:14:10;97679.53;;;8.90;82.55
40502;BME280;29631;49.168;9.848;2022-11-27T04:16:36;97687.03;;;9.01;82.79
40502;BME280;29631;49.168;9.848;2022-11-27T04:19:02;97663.28;;;8.87;82.21
40502;BME280;29631;49.168;9.848;2022-11-27T04:21:27;97666.53;;;8.89;82.52
40502;BME280;29631;49.168;9.848;2022-11-27T04:23:53;97674.75;;;8.94;82.38
40502;BME280;29631;49.168;9.848;2022-11-27T04:26:19;97673.91;;;8.93;82.57
40502;BME280;29631;49.168;9.848;2022-11-27T04:28:45;97670.81;;;8.82;81.58
40502;BME280;29631;49.168;9.848;2022-11-27T04:31:10;97683.97;;;8.90;82.57
40502;BME280;29631;49.168;9.848;2022-11-27T04:33:37;97661.84;;;8.61;81.70
40502;BME280;29631;49.168;9.848;2022-11-27T04:36:03;97686.47;;;8.83;82.51
40502;BME280;29631;49.168;9.848;2022-11-27T04:38:29;97663.19;;;8.65;82.38
40502;BME280;29631;49.168;9.848;2022-11-27T04:40:55;97688.09;;;8.84;81.52
40502;BME280;29631;49.168;9.848;2022-11-27T04:43:22;97677.91;;;8.73;81.70
40502;BME280;29631;49.168;9.848;2022-11-27T04:45:48;97675.47;;;8.72;81.45
40502;BME280;29631;49.168;9.848;2022-11-27T04:48:13;97677.78;;;8.67;81.50
40502;BME280;29631;49.168;9.848;2022-11-27T04:50:39;97671.69;;;8.66;82.09
40502;BME280;29631;49.168;9.848;2022-11-27T04:53:05;97673.69;;;8.65;81.28
40502;BME280;29631;49.168;9.848;2022-11-27T04:55:30;97679.75;;;8.65;81.23
40502;BME280;29631;49.168;9.848;2022-11-27T04:57:56;97678.28;;;8.63;81.54
40502;BME280;29631;49.168;9.848;2022-11-27T05:00:22;97670.22;;;8.56;81.25
40502;BME280;29631;49.168;9.848;2022-11-27T05:02:48;97650.06;;;8.41;81.30
40502;BME280;29631;49.168;9.848;2022-11-27T05:05:13;97655.19;;;8.42;81.93
40502;BME280;29631;49.168;9.848;2022-11-27T05:07:39;97667.78;;;8.47;81.22
40502;BME280;29631;49.168;9.848;2022-11-27T05:10:06;97654.69;;;8.39;80.96
40502;BME280;29631;49.168;9.848;2022-11-27T05:12:32;97644.19;;;8.31;81.57
40502;BME280;29631;49.168;9.848;2022-11-27T05:14:57;97658.13;;;8.39;81.10
40502;BME280;29631;49.168;9.848;2022-11-27T05:17:23;97656.47;;;8.38;81.63
40502;BME280;29631;49.168;9.848;2022-11-27T05:19:49;97664.03;;;8.41;81.70
40502;BME280;29631;49.168;9.848;2022-11-27T05:22:15;97657.63;;;8.36;80.63
40502;BME280;29631;49.168;9.848;2022-11-27T05:24:40;97611.19;;;8.12;80.85
40502;BME280;29631;49.168;9.848;2022-11-27T05:27:06;97636.78;;;8.26;81.59
40502;BME280;29631;49.168;9.848;2022-11-27T05:29:32;97652.72;;;8.33;81.15
40502;BME280;29631;49.168;9.848;2022-11-27T05:31:57;97622.53;;;8.13;81.73
40502;BME280;29631;49.168;9.848;2022-11-27T05:34:23;97636.00;;;8.26;81.37
40502;BME280;29631;49.168;9.848;2022-11-27T05:36:49;97612.69;;;8.07;81.20
40502;BME280;29631;49.168;9.848;2022-11-27T05:39:15;97630.06;;;8.16;80.82
40502;BME280;29631;49.168;9.848;2022-11-27T05:41:42;97615.44;;;8.13;81.54
40502;BME280;29631;49.168;9.848;2022-11-27T05:44:13;97633.03;;;8.21;82.10
40502;BME280;29631;49.168;9.848;2022-11-27T05:46:40;97615.31;;;8.07;81.73
40502;BME280;29631;49.168;9.848;2022-11-27T05:49:13;97618.78;;;8.15;80.96
40502;BME280;29631;49.168;9.848;2022-11-27T05:51:40;97616.59;;;8.11;81.21
40502;BME280;29631;49.168;9.848;2022-11-27T05:54:06;97608.91;;;8.09;81.90
40502;BME280;29631;49.168;9.848;2022-11-27T05:56:32;97620.88;;;8.12;81.45
40502;BME280;29631;49.168;9.848;2022-11-27T05:58:57;97598.56;;;8.00;81.23
40502;BME280;29631;49.168;9.848;2022-11-27T06:01:23;97621.84;;;8.11;81.78
40502;BME280;29631;49.168;9.848;2022-11-27T06:03:49;97620.56;;;8.07;81.72
40502;BME280;29631;49.168;9.848;2022-11-27T06:06:17;97626.66;;;8.15;81.12
40502;BME280;29631;49.168;9.848;2022-11-27T06:08:44;97614.63;;;8.13;81.20
40502;BME280;29631;49.168;9.848;2022-11-27T06:11:17;97609.25;;;8.14;81.88
40502;BME280;29631;49.168;9.848;2022-11-27T06:13:45;97606.09;;;8.11;81.75
40502;BME280;29631;49.168;9.848;2022-11-27T06:16:18;97598.53;;;8.08;81.97
40502;BME280;29631;49.168;9.848;2022-11-27T06:18:53;97610.72;;;8.17;81.69
40502;BME280;29631;49.168;9.848;2022-11-27T06:21:21;97600.03;;;8.10;82.12
40502;BME280;29631;49.168;9.848;2022-11-27T06:23:52;97604.44;;;8.10;81.84
40502;BME280;29631;49.168;9.848;2022-11-27T06:26:25;97609.91;;;8.16;81.12
40502;BME280;29631;49.168;9.848;2022-11-27T06:28:53;97614.00;;;8.19;82.15
40502;BME280;29631;49.168;9.848;2022-11-27T06:31:23;97602.81;;;8.09;81.57
40502;BME280;29631;49.168;9.848;2022-11-27T06:33:52;97616.16;;;8.15;81.47
40502;BME280;29631;49.168;9.848;2022-11-27T06:36:18;97604.81;;;8.07;81.54
40502;BME280;29631;49.168;9.848;2022-11-27T06:38:45;97607.44;;;8.15;81.68
40502;BME280;29631;49.168;9.848;2022-11-27T06:41:20;97607.75;;;8.12;82.32
40502;BME280;29631;49.168;9.848;2022-11-27T06:43:46;97620.56;;;8.23;82.49
40502;BME280;29631;49.168;9.848;2022-11-27T06:46:15;97609.25;;;8.14;82.31
40502;BME280;29631;49.168;9.848;2022-11-27T06:48:43;97628.25;;;8.24;81.20
40502;BME280;29631;49.168;9.848;2022-11-27T06:51:12;97620.06;;;8.27;81.60
40502;BME280;29631;49.168;9.848;2022-11-27T06:53:39;97613.66;;;8.22;82.08
40502;BME280;29631;49.168;9.848;2022-11-27T06:56:11;97614.00;;;8.27;81.33
40502;BME280;29631;49.168;9.848;2022-11-27T06:58:38;97626.78;;;8.30;81.24
40502;BME280;29631;49.168;9.848;2022-11-27T07:01:07;97618.91;;;8.30;81.14
40502;BME280;29631;49.168;9.848;2022-11-27T07:03:34;97608.09;;;8.25;81.62
40502;BME280;29631;49.168;9.848;2022-11-27T07:06:04;97602.66;;;8.26;81.40
40502;BME280;29631;49.168;9.848;2022-11-27T07:08:32;97608.56;;;8.28;81.53
40502;BME280;29631;49.168;9.848;2022-11-27T07:11:11;97577.88;;;8.13;82.11
40502;BME280;29631;49.168;9.848;2022-11-27T07:13:37;97620.84;;;8.36;81.72
40502;BME280;29631;49.168;9.848;2022-11-27T07:16:06;97618.91;;;8.38;81.53
40502;BME280;29631;49.168;9.848;2022-11-27T07:18:42;97611.19;;;8.36;81.92
40502;BME280;29631;49.168;9.848;2022-11-27T07:21:08;97599.22;;;8.26;81.93
40502;BME280;29631;49.168;9.848;2022-11-27T07:23:35;97609.03;;;8.40;81.55
40502;BME280;29631;49.168;9.848;2022-11-27T07:26:19;97611.69;;;8.40;81.15
40502;BME280;29631;49.168;9.848;2022-11-27T07:28:46;97607.06;;;8.42;81.47
40502;BME280;29631;49.168;9.848;2022-11-27T07:31:21;97592.47;;;8.31;81.76
40502;BME280;29631;49.168;9.848;2022-11-27T07:33:47;97590.50;;;8.33;81.77
40502;BME280;29631;49.168;9.848;2022-11-27T07:36:16;97572.63;;;8.21;81.63
40502;BME280;29631;49.168;9.848;2022-11-27T07:38:43;97580.19;;;8.24;81.64
40502;BME280;29631;49.168;9.848;2022-11-27T07:41:09;97587.88;;;8.33;81.24
40502;BME280;29631;49.168;9.848;2022-11-27T07:43:36;97601.16;;;8.40;81.38
40502;BME280;29631;49.168;9.848;2022-11-27T07:46:04;97590.31;;;8.35;81.72
40502;BME280;29631;49.168;9.848;2022-11-27T07:48:30;97601.31;;;8.38;81.13
40502;BME280;29631;49.168;9.848;2022-11-27T07:50:56;97581.16;;;8.31;82.05
40502;BME280;29631;49.168;9.848;2022-11-27T07:53:21;97592.28;;;8.41;81.12
40502;BME280;29631;49.168;9.848;2022-11-27T07:55:48;97594.88;;;8.49;81.64
40502;BME280;29631;49.168;9.848;2022-11-27T07:58:14;97602.06;;;8.70;81.16
40502;BME280;29631;49.168;9.848;2022-11-27T08:00:40;97565.69;;;8.82;80.84
40502;BME280;29631;49.168;9.848;2022-11-27T08:03:06;97584.47;;;9.09;81.09
40502;BME280;29631;49.168;9.848;2022-11-27T08:05:33;97577.63;;;9.23;80.08
40502;BME280;29631;49.168;9.848;2022-11-27T08:08:00;97574.44;;;9.35;80.68
40502;BME280;29631;49.168;9.848;2022-11-27T08:10:38;97565.41;;;9.52;80.36
40502;BME280;29631;49.168;9.848;2022-11-27T08:13:05;97567.84;;;9.76;80.83
40502;BME280;29631;49.168;9.848;2022-11-27T08:15:31;97555.16;;;10.02;80.16
40502;BME280;29631;49.168;9.848;2022-11-27T08:17:57;97551.22;;;10.49;79.37
40502;BME280;29631;49.168;9.848;2022-11-27T08:20:23;97555.59;;;11.06;77.84
40502;BME280;29631;49.168;9.848;2022-11-27T08:22:49;97538.03;;;11.34;77.61
40502;BME280;29631;49.168;9.848;2022-11-27T08:25:15;97542.34;;;11.56;76.99
40502;BME280;29631;49.168;9.848;2022-11-27T08:27:42;97531.59;;;11.78;77.16
40502;BME280;29631;49.168;9.848;2022-11-27T08:30:09;97543.28;;;12.17;76.57
40502;BME280;29631;49.168;9.848;2022-11-27T08:32:38;97558.16;;;12.52;77.02
40502;BME280;29631;49.168;9.848;2022-11-27T08:35:05;97553.09;;;12.91;75.55
40502;BME280;29631;49.168;9.848;2022-11-27T08:37:31;97554.81;;;13.17;75.60
40502;BME280;29631;49.168;9.848;2022-11-27T08:39:57;97551.97;;;13.12;75.78
40502;BME280;29631;49.168;9.848;2022-11-27T08:42:22;97521.66;;;12.81;76.74
40502;BME280;29631;49.168;9.848;2022-11-27T08:44:48;97549.34;;;12.79;77.30
40502;BME280;29631;49.168;9.848;2022-11-27T08:47:15;97537.03;;;12.58;78.37
40502;BME280;29631;49.168;9.848;2022-11-27T08:49:42;97532.91;;;12.49;78.73
40502;BME280;29631;49.168;9.848;2022-11-27T08:52:09;97546.41;;;12.61;78.77
40502;BME280;29631;49.168;9.848;2022-11-27T08:54:35;97540.81;;;12.43;78.70
40502;BME280;29631;49.168;9.848;2022-11-27T08:57:01;97551.34;;;12.36;79.34
40502;BME280;29631;49.168;9.848;2022-11-27T08:59:27;97532.75;;;12.24;79.67
40502;BME280;29631;49.168;9.848;2022-11-27T09:01:53;97520.03;;;12.06;80.85
40502;BME280;29631;49.168;9.848;2022-11-27T09:04:18;97530.19;;;12.09;80.11
40502;BME280;29631;49.168;9.848;2022-11-27T09:06:44;97529.34;;;12.02;80.62
40502;BME280;29631;49.168;9.848;2022-11-27T09:09:10;97520.69;;;11.87;80.59
40502;BME280;29631;49.168;9.848;2022-11-27T09:11:36;97503.72;;;11.75;80.53
40502;BME280;29631;49.168;9.848;2022-11-27T09:14:03;97515.91;;;11.76;80.43
40502;BME280;29631;49.168;9.848;2022-11-27T09:16:29;97527.38;;;11.62;81.07
40502;BME280;29631;49.168;9.848;2022-11-27T09:18:56;97531.53;;;11.71;80.80
40502;BME280;29631;49.168;9.848;2022-11-27T09:21:25;97532.97;;;11.74;80.74
40502;BME280;29631;49.168;9.848;2022-11-27T09:23:59;97530.13;;;11.75;80.71
40502;BME280;29631;49.168;9.848;2022-11-27T09:26:26;97537.28;;;11.81;80.91
40502;BME280;29631;49.168;9.848;2022-11-27T09:28:54;97525.47;;;11.77;79.97
40502;BME280;29631;49.168;9.848;2022-11-27T09:31:21;97523.59;;;11.71;81.16
40502;BME280;29631;49.168;9.848;2022-11-27T09:33:47;97515.69;;;11.71;81.25
40502;BME280;29631;49.168;9.848;2022-11-27T09:36:17;97518.75;;;11.75;80.60
40502;BME280;29631;49.168;9.848;2022-11-27T09:38:44;97514.16;;;11.83;80.81
40502;BME280;29631;49.168;9.848;2022-11-27T09:43:52;97522.81;;;11.98;nan
40502;BME280;29631;49.168;9.848;2022-11-27T09:46:40;97506.56;;;12.01;80.79
40502;BME280;29631;49.168;9.848;2022-11-27T09:49:13;97504.97;;;12.07;80.94
40502;BME280;29631;49.168;9.848;2022-11-27T09:52:06;97491.63;;;12.15;80.90
40502;BME280;29631;49.168;9.848;2022-11-27T09:55:00;97497.38;;;12.25;81.40
40502;BME280;29631;49.168;9.848;2022-11-27T09:57:35;97484.97;;;12.25;80.78
40502;BME280;29631;49.168;9.848;2022-11-27T10:00:17;97473.84;;;12.36;82.24
40502;BME280;29631;49.168;9.848;2022-11-27T10:02:44;97477.97;;;12.45;81.94
40502;BME280;29631;49.168;9.848;2022-11-27T10:08:19;97482.91;;;12.61;81.64
40502;BME280;29631;49.168;9.848;2022-11-27T10:11:39;97477.25;;;12.70;81.95
40502;BME280;29631;49.168;9.848;2022-11-27T10:17:44;97472.84;;;12.84;81.78
40502;BME280;29631;49.168;9.848;2022-11-27T10:23:09;97475.78;;;13.02;81.16
40502;BME280;29631;49.168;9.848;2022-11-27T10:25:47;97475.19;;;13.12;82.16
40502;BME280;29631;49.168;9.848;2022-11-27T10:28:49;97458.28;;;13.20;81.55
40502;BME280;29631;49.168;9.848;2022-11-27T10:31:54;97437.91;;;13.14;81.85
40502;BME280;29631;49.168;9.848;2022-11-27T10:34:44;97451.19;;;13.20;81.52
40502;BME280;29631;49.168;9.848;2022-11-27T10:37:24;97437.13;;;13.13;81.96
40502;BME280;29631;49.168;9.848;2022-11-27T10:40:41;97442.19;;;13.15;82.35
40502;BME280;29631;49.168;9.848;2022-11-27T10:43:21;97438.75;;;13.14;82.46
40502;BME280;29631;49.168;9.848;2022-11-27T10:46:02;97429.81;;;13.28;82.84
40502;BME280;29631;49.168;9.848;2022-11-27T10:48:29;97421.06;;;13.47;81.85
40502;BME280;29631;49.168;9.848;2022-11-27T10:50:57;97423.28;;;13.70;81.05
40502;BME280;29631;49.168;9.848;2022-11-27T10:53:35;97418.38;;;13.99;80.18
40502;BME280;29631;49.168;9.848;2022-11-27T10:56:17;97426.09;;;14.13;80.29
40502;BME280;29631;49.168;9.848;2022-11-27T10:59:12;97421.00;;;14.12;79.40
40502;BME280;29631;49.168;9.848;2022-11-27T11:01:50;97412.63;;;14.15;79.59
40502;BME280;29631;49.168;9.848;2022-11-27T11:04:26;97406.75;;;14.13;79.67
40502;BME280;29631;49.168;9.848;2022-11-27T11:06:52;97390.22;;;14.11;80.30
40502;BME280;29631;49.168;9.848;2022-11-27T11:09:28;97395.25;;;14.25;80.62
40502;BME280;29631;49.168;9.848;2022-11-27T11:17:16;97373.19;;;14.31;80.21
40502;BME280;29631;49.168;9.848;2022-11-27T11:19:43;97362.81;;;14.30;80.48
40502;BME280;29631;49.168;9.848;2022-11-27T11:22:14;97347.56;;;14.19;80.66
40502;BME280;29631;49.168;9.848;2022-11-27T11:24:47;97366.47;;;14.29;80.77
40502;BME280;29631;49.168;9.848;2022-11-27T11:27:24;97379.91;;;14.34;81.23
40502;BME280;29631;49.168;9.848;2022-11-27T11:29:57;97363.66;;;14.24;81.04
40502;BME280;29631;49.168;9.848;2022-11-27T11:32:34;97357.91;;;14.27;81.32
40502;BME280;29631;49.168;9.848;2022-11-27T11:35:33;97350.16;;;14.32;80.30
40502;BME280;29631;49.168;9.848;2022-11-27T11:38:03;97339.97;;;14.29;81.08
40502;BME280;29631;49.168;9.848;2022-11-27T11:40:32;97319.97;;;14.26;80.73
40502;BME280;29631;49.168;9.848;2022-11-27T11:43:02;97321.56;;;14.34;80.68
40502;BME280;29631;49.168;9.848;2022-11-27T11:45:32;97320.09;;;14.44;81.47
40502;BME280;29631;49.168;9.848;2022-11-27T11:48:20;97301.13;;;14.41;80.61
40502;BME280;29631;49.168;9.848;2022-11-27T11:51:00;97311.06;;;14.51;80.95
40502;BME280;29631;49.168;9.848;2022-11-27T11:53:38;97294.94;;;14.53;81.49
40502;BME280;29631;49.168;9.848;2022-11-27T11:56:32;97317.25;;;14.76;80.97
40502;BME280;29631;49.168;9.848;2022-11-27T12:04:55;97295.72;;;14.84;80.43
40502;BME280;29631;49.168;9.848;2022-11-27T12:11:04;97299.50;;;15.01;80.83
40502;BME280;29631;49.168;9.848;2022-11-27T12:17:27;97294.59;;;14.98;80.79
40502;BME280;29631;49.168;9.848;2022-11-27T12:25:32;97270.25;;;14.83;80.72
40502;BME280;29631;49.168;9.848;2022-11-27T12:40:45;97274.22;;;14.92;80.56
40502;BME280;29631;49.168;9.848;2022-11-27T12:43:32;97254.31;;;14.83;80.48
40502;BME280;29631;49.168;9.848;2022-11-27T12:49:11;97253.59;;;14.94;80.08
40502;BME280;29631;49.168;9.848;2022-11-27T12:52:06;97254.50;;;15.06;80.07
40502;BME280;29631;49.168;9.848;2022-11-27T12:58:09;97245.72;;;15.30;80.25
40502;BME280;29631;49.168;9.848;2022-11-27T13:00:41;97228.00;;;15.24;79.32
40502;BME280;29631;49.168;9.848;2022-11-27T13:04:01;97244.47;;;15.32;79.82
40502;BME280;29631;49.168;9.848;2022-11-27T13:06:31;97241.44;;;15.29;79.44
40502;BME280;29631;49.168;9.848;2022-11-27T13:09:08;97220.75;;;15.13;78.74
40502;BME280;29631;49.168;9.848;2022-11-27T13:11:39;97209.38;;;15.06;79.19
40502;BME280;29631;49.168;9.848;2022-11-27T13:14:18;97217.72;;;15.10;78.98
40502;BME280;29631;49.168;9.848;2022-11-27T13:17:03;97222.94;;;15.16;79.27
40502;BME280;29631;49.168;9.848;2022-11-27T13:19:39;97200.16;;;15.09;79.41
40502;BME280;29631;49.168;9.848;2022-11-27T13:22:13;97205.91;;;15.06;79.62
40502;BME280;29631;49.168;9.848;2022-11-27T13:24:40;97214.06;;;15.04;79.89
40502;BME280;29631;49.168;9.848;2022-11-27T13:27:18;97192.91;;;14.98;79.29
40502;BME280;29631;49.168;9.848;2022-11-27T13:29:52;97187.59;;;14.98;79.30
40502;BME280;29631;49.168;9.848;2022-11-27T13:32:26;97183.84;;;15.05;79.36
40502;BME280;29631;49.168;9.848;2022-11-27T13:35:03;97194.78;;;15.15;79.55
40502;BME280;29631;49.168;9.848;2022-11-27T13:37:40;97190.53;;;15.32;78.85
40502;BME280;29631;49.168;9.848;2022-11-27T13:40:25;97175.03;;;15.65;78.36
40502;BME280;29631;49.168;9.848;2022-11-27T13:42:54;97182.44;;;16.21;76.67
40502;BME280;29631;49.168;9.848;2022-11-27T13:45:30;97183.59;;;16.25;75.96
40502;BME280;29631;49.168;9.848;2022-11-27T13:47:59;97186.00;;;16.15;76.13
40502;BME280;29631;49.168;9.848;2022-11-27T13:50:27;97174.75;;;15.84;76.54
40502;BME280;29631;49.168;9.848;2022-11-27T13:53:03;97180.94;;;15.67;77.24
40502;BME280;29631;49.168;9.848;2022-11-27T13:55:39;97201.31;;;15.55;77.05
40502;BME280;29631;49.168;9.848;2022-11-27T13:58:39;97178.66;;;15.34;77.60
40502;BME280;29631;49.168;9.848;2022-11-27T14:01:23;97190.75;;;15.30;77.76
40502;BME280;29631;49.168;9.848;2022-11-27T14:03:49;97173.97;;;15.12;77.84
40502;BME280;29631;49.168;9.848;2022-11-27T14:06:27;97185.03;;;15.09;78.08
40502;BME280;29631;49.168;9.848;2022-11-27T14:09:03;97151.34;;;14.85;77.86
40502;BME280;29631;49.168;9.848;2022-11-27T14:11:43;97172.00;;;14.83;78.39
40502;BME280;29631;49.168;9.848;2022-11-27T14:14:22;97162.53;;;14.69;78.23
40502;BME280;29631;49.168;9.848;2022-11-27T14:17:00;97155.72;;;14.55;78.37
40502;BME280;29631;49.168;9.848;2022-11-27T14:19:43;97141.56;;;14.37;78.39
40502;BME280;29631;49.168;9.848;2022-11-27T14:22:48;97165.66;;;14.36;78.43
40502;BME280;29631;49.168;9.848;2022-11-27T14:28:21;97159.34;;;14.06;78.74
40502;BME280;29631;49.168;9.848;2022-11-27T14:30:59;97143.31;;;13.88;78.71
40502;BME280;29631;49.168;9.848;2022-11-27T14:33:33;97153.34;;;13.86;78.99
40502;BME280;29631;49.168;9.848;2022-11-27T14:36:05;97139.97;;;13.68;78.56
40502;BME280;29631;49.168;9.848;2022-11-27T14:38:33;97138.84;;;13.51;79.12
40502;BME280;29631;49.168;9.848;2022-11-27T14:41:14;97136.69;;;13.35;78.48
40502;BME280;29631;49.168;9.848;2022-11-27T14:43:40;97138.09;;;13.31;78.37
40502;BME280;29631;49.168;9.848;2022-11-27T14:46:16;97146.69;;;13.20;78.58
40502;BME280;29631;49.168;9.848;2022-11-27T14:51:18;97149.56;;;13.12;78.89
40502;BME280;29631;49.168;9.848;2022-11-27T14:53:48;97125.16;;;12.98;78.46
40502;BME280;29631;49.168;9.848;2022-11-27T14:56:15;97116.66;;;12.83;78.34
40502;BME280;29631;49.168;9.848;2022-11-27T14:58:53;97119.69;;;12.80;78.58
40502;BME280;29631;49.168;9.848;2022-11-27T15:01:32;97108.53;;;12.71;79.23
40502;BME280;29631;49.168;9.848;2022-11-27T15:04:01;97118.06;;;12.79;78.89
40502;BME280;29631;49.168;9.848;2022-11-27T15:06:40;97096.94;;;12.66;79.16
40502;BME280;29631;49.168;9.848;2022-11-27T15:09:24;97092.69;;;12.65;78.65
40502;BME280;29631;49.168;9.848;2022-11-27T15:12:02;97087.59;;;12.57;78.17
40502;BME280;29631;49.168;9.848;2022-11-27T15:14:30;97100.00;;;12.63;78.88